KSFQ

Details ICAO KSFQ
Name SUFFOLK EXECUTIVE
Region United States
Timezone America/New_York (UTC-4.0)
Plans Departing 7
Arriving 3
Stats Elevation 72 ft / 22 m (AMSL)
Location 36.682156° -76.600773°
Runways 2
Magnetic Variation 10.648° W
Sunrise 2018-05-22 09:55:31 UTC / 2018-05-22 05:55:31 Local
Sunset 2018-05-23 00:13:31 UTC / 2018-05-22 20:13:31 Local
Advertisement - Login to hide

Runways

ID Width Length Bearing (true) Bearing (mag) Surface Threshold Offset Overrun Length
04 98 ft / 30 m 5,005 ft / 1,526 m 30.10° 40.75° Asphalt 213 ft / 65 m 0 ft / 0 m
07 98 ft / 30 m 4,467 ft / 1,362 m 63.60° 74.25° Asphalt 180 ft / 55 m 364 ft / 111 m
22 98 ft / 30 m 5,005 ft / 1,526 m 210.11° 220.76° Asphalt 213 ft / 65 m 0 ft / 0 m
25 98 ft / 30 m 4,467 ft / 1,362 m 243.61° 254.26° Asphalt 0 ft / 0 m 0 ft / 0 m

Map

Weather


0- 5 10 15 20 25 30 35+ Temperature / ° C

Clouds and Precipitation
Forecast for 2018-05-23 00:00 UTC. Updated 3 hours ago

Ground ~20,000 ft ~40,000 ft Winds

METAR

KSFQ 230135Z AUTO 00000KT 10SM SCT120 23/22 A3006 RMK AO2 LTG DSNT NE T02250215

TAF

Not found

Frequencies

Recorded 119.37 MHz AWOS 3
Approach 127.90 MHz NORFOLK APP/DEP
Unicom 122.70 MHz CTAF/UNICOM
Warning: Do not use this data for real-world aviation or navigation. No guarantee of current accuracy is given.